Time;durP1;ratioP1;P1;durP2;ratioP2;P2;SDS_P1;SDS_P2;PMS_P1;PMS_P2;Temp;Humidity;BMP_temperature;BMP_pressure;BME280_temperature;BME280_humidity;BME280_pressure;Samples;Min_cycle;Max_cycle;Signal;HPM_P1;HPM_P2
2022/06/17 00:01:39;;;;;;;8.73;6.10;;;;;;;;;;5088546;28;20184;-83
2022/06/17 00:04:06;;;;;;;7.60;6.40;;;16.60;99.90;;;;;;5080254;28;20216;-83
2022/06/17 00:06:38;;;;;;;7.00;6.30;;;16.50;99.90;;;;;;5079506;28;20182;-84
2022/06/17 00:09:06;;;;;;;7.47;5.90;;;16.50;99.90;;;;;;5080187;28;20197;-83
2022/06/17 00:11:35;;;;;;;7.30;6.13;;;16.50;99.90;;;;;;5080677;28;20177;-83
2022/06/17 00:14:01;;;;;;;9.57;6.43;;;;;;;;;;5079639;28;20209;-84
2022/06/17 00:16:28;;;;;;;8.13;6.53;;;16.50;99.90;;;;;;5079539;28;20178;-83
2022/06/17 00:18:54;;;;;;;9.30;6.63;;;16.50;99.90;;;;;;5082187;28;20211;-83
2022/06/17 00:21:25;;;;;;;8.60;7.10;;;16.40;99.90;;;;;;5080270;28;20178;-84
2022/06/17 00:23:51;;;;;;;8.80;6.83;;;16.50;99.90;;;;;;5082352;28;20181;-84
2022/06/17 00:26:17;;;;;;;11.67;6.73;;;16.40;99.90;;;;;;5076019;28;20178;-84
2022/06/17 00:28:43;;;;;;;7.53;6.33;;;16.10;99.90;;;;;;5067451;28;20228;-83
2022/06/17 00:31:09;;;;;;;9.57;6.20;;;;;;;;;;5070935;28;20548;-84
2022/06/17 00:33:35;;;;;;;6.20;5.60;;;;;;;;;;5070844;28;20170;-83
2022/06/17 00:36:01;;;;;;;7.63;6.80;;;16.20;99.90;;;;;;5070568;28;20177;-83
2022/06/17 00:38:31;;;;;;;9.60;6.47;;;16.20;99.90;;;;;;5070023;28;20261;-84
2022/06/17 00:41:05;;;;;;;7.23;6.40;;;16.10;99.90;;;;;;5068944;28;20189;-84
2022/06/17 00:43:35;;;;;;;8.70;7.40;;;15.90;99.90;;;;;;5075525;28;20192;-83
2022/06/17 00:46:24;;;;;;;7.13;6.43;;;16.00;99.90;;;;;;5076895;28;20251;-82
2022/06/17 00:49:06;;;;;;;10.43;6.40;;;15.80;99.90;;;;;;5072306;28;20205;-83
2022/06/17 00:52:04;;;;;;;8.87;5.97;;;16.00;99.90;;;;;;5076247;28;20178;-83
2022/06/17 00:54:53;;;;;;;10.30;6.93;;;15.90;99.90;;;;;;5074972;28;20193;-83
2022/06/17 00:57:24;;;;;;;10.17;6.57;;;15.70;99.90;;;;;;5073875;28;20193;-83
2022/06/17 01:00:07;;;;;;;7.53;6.80;;;16.00;99.90;;;;;;5068614;28;20208;-84
2022/06/17 01:02:51;;;;;;;8.90;6.77;;;15.70;99.90;;;;;;5067196;28;20200;-84
2022/06/17 01:05:20;;;;;;;8.10;6.83;;;15.90;99.90;;;;;;5065908;28;20305;-84
2022/06/17 01:07:54;;;;;;;9.77;6.47;;;15.70;99.90;;;;;;5066220;28;20170;-83
2022/06/17 01:10:21;;;;;;;9.87;6.67;;;;;;;;;;5067374;28;20196;-84
2022/06/17 01:12:52;;;;;;;7.53;6.37;;;15.90;99.90;;;;;;5067108;28;20260;-84
2022/06/17 01:15:21;;;;;;;8.17;6.73;;;15.70;99.90;;;;;;5066456;28;20204;-84
2022/06/17 01:17:49;;;;;;;12.77;6.60;;;15.60;99.90;;;;;;5067096;28;20708;-84
2022/06/17 01:20:16;;;;;;;10.77;6.57;;;15.60;99.90;;;;;;5066768;28;20209;-83
2022/06/17 01:23:04;;;;;;;8.50;6.73;;;15.60;99.90;;;;;;5064408;28;20577;-83
2022/06/17 01:25:48;;;;;;;13.00;6.97;;;15.70;99.90;;;;;;5062436;28;20229;-83
2022/06/17 01:28:16;;;;;;;9.53;6.80;;;15.50;99.90;;;;;;5063488;28;20273;-83
2022/06/17 01:30:49;;;;;;;7.33;6.20;;;15.50;99.90;;;;;;5063305;28;20200;-83
2022/06/17 01:33:15;;;;;;;11.17;6.60;;;15.60;99.90;;;;;;5064191;28;20168;-83
2022/06/17 01:36:01;;;;;;;7.20;6.03;;;15.70;99.90;;;;;;5063291;28;20178;-83
2022/06/17 01:38:29;;;;;;;7.33;6.10;;;15.40;99.90;;;;;;5058597;28;20647;-83
2022/06/17 01:40:57;;;;;;;9.87;6.33;;;15.80;99.90;;;;;;5060415;28;20262;-83
2022/06/17 01:43:29;;;;;;;9.10;6.57;;;15.50;99.90;;;;;;5058639;28;20524;-83
2022/06/17 01:46:01;;;;;;;8.30;6.90;;;15.50;99.90;;;;;;5057559;28;20251;-83
2022/06/17 01:48:32;;;;;;;9.67;6.80;;;15.50;99.90;;;;;;5066745;28;20578;-83
2022/06/17 01:50:58;;;;;;;10.20;6.77;;;15.40;99.90;;;;;;5079965;28;20177;-83
2022/06/17 01:53:29;;;;;;;8.23;6.90;;;15.50;99.90;;;;;;5070219;28;20181;-84
2022/06/17 01:56:02;;;;;;;8.43;6.47;;;15.60;99.90;;;;;;5064506;28;20175;-84
2022/06/17 01:58:28;;;;;;;12.77;8.10;;;15.50;99.90;;;;;;5064889;28;20192;-83
2022/06/17 02:00:55;;;;;;;7.93;6.87;;;15.30;99.90;;;;;;5064264;28;20173;-83
2022/06/17 02:03:50;;;;;;;9.53;6.90;;;15.30;99.90;;;;;;5066181;28;20178;-84
2022/06/17 02:06:28;;;;;;;7.90;7.10;;;15.00;99.90;;;;;;5063599;28;20297;-83
2022/06/17 02:08:54;;;;;;;7.67;6.87;;;14.90;99.90;;;;;;5064081;28;20248;-83
2022/06/17 02:11:21;;;;;;;8.27;6.70;;;15.10;99.90;;;;;;5065555;28;20193;-84
2022/06/17 02:13:47;;;;;;;9.53;7.20;;;;;;;;;;5065058;28;20185;-84
2022/06/17 02:16:13;;;;;;;8.13;6.97;;;15.00;99.90;;;;;;5072350;28;20204;-83
2022/06/17 02:18:42;;;;;;;7.80;6.83;;;15.00;99.90;;;;;;5073638;28;20204;-83
2022/06/17 02:21:20;;;;;;;11.27;6.97;;;15.20;99.90;;;;;;5063700;28;20189;-83
2022/06/17 02:23:46;;;;;;;8.20;7.30;;;;;;;;;;5065007;28;20174;-83
2022/06/17 02:26:13;;;;;;;12.37;7.07;;;14.80;99.90;;;;;;5063675;28;20174;-83
2022/06/17 02:28:42;;;;;;;9.87;7.07;;;14.80;99.90;;;;;;5064466;28;20198;-83
2022/06/17 02:31:08;;;;;;;8.07;7.07;;;14.80;99.90;;;;;;5063504;28;20232;-83
2022/06/17 02:33:37;;;;;;;7.53;6.73;;;14.80;99.90;;;;;;5063430;28;20185;-83
2022/06/17 02:36:17;;;;;;;8.87;6.97;;;14.80;99.90;;;;;;5063038;28;20185;-83
2022/06/17 02:38:45;;;;;;;8.03;7.23;;;;;;;;;;5064120;28;20773;-83
2022/06/17 02:41:17;;;;;;;9.50;7.37;;;14.60;99.90;;;;;;5063615;28;20185;-83
2022/06/17 02:43:47;;;;;;;8.90;6.80;;;14.70;99.90;;;;;;5064149;28;20272;-83
2022/06/17 02:46:35;;;;;;;8.67;7.80;;;14.70;99.90;;;;;;5064742;28;20173;-84
2022/06/17 02:49:04;;;;;;;7.47;6.67;;;14.30;99.90;;;;;;5065415;28;20721;-83
2022/06/17 02:51:34;;;;;;;9.63;7.33;;;14.20;99.90;;;;;;5065455;28;20177;-83
2022/06/17 02:54:02;;;;;;;13.23;6.90;;;14.40;99.90;;;;;;5065829;28;20184;-84
2022/06/17 02:56:31;;;;;;;7.30;6.60;;;14.30;99.90;;;;;;5068467;28;20196;-83
2022/06/17 02:59:14;;;;;;;8.70;6.83;;;14.30;99.90;;;;;;5066291;28;20276;-83
2022/06/17 03:01:41;;;;;;;9.00;6.57;;;14.30;99.90;;;;;;5065485;28;20249;-84
2022/06/17 03:04:17;;;;;;;7.43;6.60;;;14.40;99.90;;;;;;5064680;28;20194;-84
2022/06/17 03:06:45;;;;;;;10.53;7.80;;;14.30;99.90;;;;;;5063956;28;20173;-84
2022/06/17 03:09:20;;;;;;;8.13;7.30;;;14.30;99.90;;;;;;5065232;28;20201;-84
2022/06/17 03:11:54;;;;;;;8.57;6.67;;;14.30;99.90;;;;;;5063545;28;20528;-84
2022/06/17 03:14:21;;;;;;;9.17;6.83;;;14.40;99.90;;;;;;5063143;28;20554;-84
2022/06/17 03:16:52;;;;;;;11.10;7.17;;;14.30;99.90;;;;;;5063553;28;20178;-84
2022/06/17 03:19:18;;;;;;;10.13;7.40;;;14.30;99.90;;;;;;5064122;28;20197;-84
2022/06/17 03:21:44;;;;;;;12.33;7.57;;;14.30;99.90;;;;;;5063491;28;20609;-84
2022/06/17 03:24:29;;;;;;;11.00;6.90;;;14.10;99.90;;;;;;5064071;28;20212;-85
2022/06/17 03:27:07;;;;;;;7.13;6.43;;;14.20;99.90;;;;;;5064597;28;20183;-84
2022/06/17 03:29:34;;;;;;;7.93;7.13;;;14.20;99.90;;;;;;5064924;28;20667;-85
2022/06/17 03:32:09;;;;;;;7.73;6.90;;;14.10;99.90;;;;;;5066513;28;20170;-84
2022/06/17 03:34:42;;;;;;;8.13;7.20;;;14.10;99.90;;;;;;5070055;28;20224;-84
2022/06/17 03:37:15;;;;;;;7.90;7.10;;;14.00;99.90;;;;;;5066289;28;20193;-84
2022/06/17 03:39:48;;;;;;;10.97;7.13;;;14.00;99.90;;;;;;5060836;28;20236;-84
2022/06/17 03:42:33;;;;;;;7.97;6.90;;;14.00;99.90;;;;;;5059773;28;20181;-84
2022/06/17 03:45:05;;;;;;;8.43;6.33;;;13.90;99.90;;;;;;5060128;28;20260;-84
2022/06/17 03:47:49;;;;;;;12.57;7.17;;;13.70;99.90;;;;;;5058460;28;20540;-84
2022/06/17 03:50:40;;;;;;;7.37;6.10;;;13.80;99.90;;;;;;5057420;28;20209;-84
2022/06/17 03:53:22;;;;;;;8.80;6.63;;;13.80;99.90;;;;;;5057319;28;20267;-84
2022/06/17 03:55:49;;;;;;;11.37;6.47;;;13.70;99.90;;;;;;5054746;28;20627;-83
2022/06/17 03:58:18;;;;;;;8.97;6.30;;;13.70;99.90;;;;;;5064945;28;20212;-84
2022/06/17 04:00:57;;;;;;;7.57;6.53;;;13.80;99.90;;;;;;5078209;28;20157;-86
2022/06/17 04:03:26;;;;;;;7.13;6.30;;;13.70;99.90;;;;;;5073493;28;20260;-86
2022/06/17 04:06:00;;;;;;;7.47;6.23;;;13.80;99.90;;;;;;5066046;28;20206;-85
2022/06/17 04:08:26;;;;;;;8.30;6.13;;;13.70;99.90;;;;;;5067665;28;20253;-85
2022/06/17 04:10:52;;;;;;;9.43;6.80;;;;;;;;;;5068181;28;20170;-85
2022/06/17 04:13:23;;;;;;;9.37;6.70;;;13.80;99.90;;;;;;5066688;28;20264;-84
2022/06/17 04:16:10;;;;;;;11.23;7.03;;;13.80;99.90;;;;;;5066817;28;20213;-85
2022/06/17 04:18:36;;;;;;;12.00;7.17;;;13.70;99.90;;;;;;5067458;28;20181;-85
2022/06/17 04:21:05;;;;;;;9.60;7.57;;;14.00;99.90;;;;;;5067212;28;20205;-85
2022/06/17 04:23:33;;;;;;;9.93;7.37;;;13.90;99.90;;;;;;5067325;28;20186;-84
2022/06/17 04:26:01;;;;;;;11.37;7.87;;;14.10;99.90;;;;;;5068231;28;20216;-85
2022/06/17 04:28:34;;;;;;;10.20;7.13;;;14.10;99.90;;;;;;5068219;28;20181;-85
2022/06/17 04:31:06;;;;;;;10.93;7.83;;;14.20;99.90;;;;;;5066719;28;20528;-85
2022/06/17 04:33:45;;;;;;;10.33;7.30;;;14.30;99.90;;;;;;5067138;28;20173;-85
2022/06/17 04:36:24;;;;;;;10.83;7.40;;;14.40;99.90;;;;;;5067782;28;20188;-85
2022/06/17 04:39:02;;;;;;;8.47;5.83;;;14.50;99.90;;;;;;5068592;28;20200;-85
2022/06/17 04:41:33;;;;;;;9.70;6.00;;;14.50;99.90;;;;;;5066526;28;20185;-85
2022/06/17 04:44:00;;;;;;;6.97;5.90;;;14.70;99.90;;;;;;5067387;28;20239;-85
2022/06/17 04:46:41;;;;;;;6.53;5.83;;;14.80;99.90;;;;;;5066636;28;20193;-85
2022/06/17 04:49:17;;;;;;;8.87;6.10;;;14.60;99.90;;;;;;5066022;28;20224;-85
2022/06/17 04:51:43;;;;;;;8.53;5.80;;;14.90;99.90;;;;;;5067666;28;20178;-85
2022/06/17 04:54:11;;;;;;;6.30;5.70;;;15.00;99.90;;;;;;5068323;28;20181;-85
2022/06/17 04:56:45;;;;;;;7.33;5.37;;;15.00;99.90;;;;;;5065836;28;20273;-85
2022/06/17 04:59:28;;;;;;;6.40;5.60;;;15.10;99.90;;;;;;5066757;28;20220;-85
2022/06/17 05:01:54;;;;;;;7.07;5.33;;;15.40;99.90;;;;;;5068415;28;20177;-85
2022/06/17 05:04:20;;;;;;;7.70;4.80;;;;;;;;;;5066872;28;20570;-85
2022/06/17 05:06:46;;;;;;;5.27;4.77;;;;;;;;;;5067520;28;20169;-85
2022/06/17 05:09:15;;;;;;;6.87;4.80;;;;;;;;;;5065345;28;20202;-85
2022/06/17 05:11:45;;;;;;;5.40;4.90;;;15.30;99.90;;;;;;5066258;28;20181;-85
2022/06/17 05:14:14;;;;;;;7.17;5.50;;;;;;;;;;5066557;28;20193;-85
2022/06/17 05:16:40;;;;;;;5.33;4.60;;;;;;;;;;5065767;28;20627;-85
2022/06/17 05:19:06;;;;;;;5.70;4.80;;;;;;;;;;5065269;28;20212;-85
2022/06/17 05:21:32;;;;;;;6.63;4.10;;;15.60;99.90;;;;;;5067204;28;20209;-85
2022/06/17 05:23:59;;;;;;;6.87;4.13;;;15.70;99.90;;;;;;5066154;28;20185;-85
2022/06/17 05:26:25;;;;;;;5.40;4.07;;;;;;;;;;5066581;28;20200;-85
2022/06/17 05:28:52;;;;;;;6.70;4.10;;;;;;;;;;5064659;28;20213;-85
2022/06/17 05:31:22;;;;;;;7.73;3.90;;;16.00;99.90;;;;;;5065618;28;20184;-85
2022/06/17 05:33:49;;;;;;;5.50;4.30;;;15.90;99.90;;;;;;5065785;28;20173;-85
2022/06/17 05:36:15;;;;;;;6.07;3.83;;;16.10;99.90;;;;;;5065562;28;20248;-85
2022/06/17 05:38:41;;;;;;;5.97;3.53;;;16.10;99.90;;;;;;5066296;28;20228;-85
2022/06/17 05:41:09;;;;;;;4.27;3.27;;;16.10;99.90;;;;;;5064588;28;20234;-85
2022/06/17 05:43:35;;;;;;;5.20;3.77;;;16.10;99.90;;;;;;5066319;28;20174;-85
2022/06/17 05:46:01;;;;;;;5.83;4.17;;;;;;;;;;5065133;28;20642;-85
2022/06/17 05:48:27;;;;;;;4.00;3.53;;;16.10;99.90;;;;;;5065265;28;20269;-84
2022/06/17 05:50:53;;;;;;;3.73;3.20;;;;;;;;;;5066131;28;20642;-85
2022/06/17 05:53:19;;;;;;;4.83;3.53;;;16.20;99.90;;;;;;5064242;28;20186;-85
2022/06/17 05:55:45;;;;;;;7.33;3.43;;;;;;;;;;5064960;28;20193;-85
2022/06/17 05:58:10;;;;;;;6.90;3.70;;;16.20;99.90;;;;;;5065821;28;20173;-85
2022/06/17 06:00:37;;;;;;;4.20;3.07;;;;;;;;;;5066249;28;20203;-85
2022/06/17 06:03:06;;;;;;;4.23;3.37;;;16.50;99.90;;;;;;5064167;28;20602;-85
2022/06/17 06:05:33;;;;;;;8.23;3.60;;;16.40;99.90;;;;;;5063114;28;20228;-84
2022/06/17 06:07:59;;;;;;;6.27;3.90;;;16.50;99.90;;;;;;5058404;28;20189;-84
2022/06/17 06:10:25;;;;;;;6.03;3.73;;;16.70;99.90;;;;;;5071550;28;20194;-84
2022/06/17 06:12:57;;;;;;;10.83;4.00;;;;;;;;;;5079475;28;20204;-85
2022/06/17 06:15:29;;;;;;;4.37;3.47;;;16.70;99.90;;;;;;5068560;28;20558;-85
2022/06/17 06:17:55;;;;;;;5.50;4.20;;;;;;;;;;5066967;28;20242;-85
2022/06/17 06:20:22;;;;;;;4.33;3.80;;;16.90;99.90;;;;;;5066482;28;20198;-84
2022/06/17 06:22:48;;;;;;;5.67;3.90;;;;;;;;;;5064391;28;20649;-85
2022/06/17 06:25:16;;;;;;;4.23;3.57;;;17.00;99.90;;;;;;5063182;28;20570;-85
2022/06/17 06:27:43;;;;;;;4.13;3.70;;;;;;;;;;5064681;28;20712;-85
2022/06/17 06:30:24;;;;;;;6.77;3.80;;;17.20;99.90;;;;;;5064718;28;20216;-86
2022/06/17 06:32:56;;;;;;;4.57;3.23;;;17.30;99.90;;;;;;5064407;28;20173;-86
2022/06/17 06:35:25;;;;;;;5.40;3.60;;;17.20;99.90;;;;;;5064421;28;20189;-85
2022/06/17 06:37:51;;;;;;;5.30;4.10;;;;;;;;;;5062499;28;20185;-86
2022/06/17 06:40:18;;;;;;;4.70;3.47;;;17.30;99.90;;;;;;5063789;28;20211;-85
2022/06/17 06:42:49;;;;;;;6.37;3.80;;;17.30;99.90;;;;;;5063315;28;20253;-86
2022/06/17 06:45:23;;;;;;;7.27;3.77;;;17.30;99.90;;;;;;5062838;28;20236;-85
2022/06/17 06:47:50;;;;;;;4.50;3.70;;;17.40;99.90;;;;;;5064214;28;20170;-86
2022/06/17 06:50:20;;;;;;;4.40;3.40;;;17.70;99.90;;;;;;5063852;28;20593;-85
2022/06/17 06:52:45;;;;;;;7.07;3.80;;;17.60;99.90;;;;;;5061973;28;20174;-85
2022/06/17 06:55:12;;;;;;;7.13;3.20;;;17.60;99.90;;;;;;5062650;28;20205;-86
2022/06/17 06:57:53;;;;;;;7.17;3.40;;;17.70;99.90;;;;;;5064873;28;20535;-86
2022/06/17 07:00:22;;;;;;;5.83;2.97;;;;;;;;;;5065431;28;20197;-86
2022/06/17 07:02:48;;;;;;;10.33;3.03;;;;;;;;;;5064104;28;20184;-86
2022/06/17 07:05:15;;;;;;;4.30;3.07;;;17.90;99.90;;;;;;5065893;28;20224;-86
2022/06/17 07:07:42;;;;;;;4.63;3.30;;;18.00;99.90;;;;;;5065597;28;20177;-86
2022/06/17 07:10:15;;;;;;;4.20;3.53;;;18.00;99.90;;;;;;5064745;28;20674;-86
2022/06/17 07:12:41;;;;;;;8.57;3.60;;;18.20;99.90;;;;;;5064736;28;20657;-86
2022/06/17 07:15:08;;;;;;;7.00;4.00;;;18.60;99.90;;;;;;5064362;28;20201;-86
2022/06/17 07:17:34;;;;;;;6.73;3.73;;;18.50;99.90;;;;;;5064898;28;20189;-84
2022/06/17 07:20:00;;;;;;;8.40;3.30;;;;;;;;;;5064051;28;20295;-84
2022/06/17 07:22:26;;;;;;;6.90;3.23;;;;;;;;;;5068111;28;20179;-83
2022/06/17 07:24:51;;;;;;;5.20;3.17;;;18.50;99.90;;;;;;5068506;28;20212;-83
2022/06/17 07:27:18;;;;;;;4.53;3.10;;;;;;;;;;5064453;28;20625;-85
2022/06/17 07:29:43;;;;;;;5.23;3.40;;;18.70;99.90;;;;;;5062982;28;20228;-84
2022/06/17 07:32:10;;;;;;;6.77;3.33;;;;;;;;;;5062398;28;20175;-84
2022/06/17 07:34:35;;;;;;;6.50;3.60;;;18.80;99.90;;;;;;5064863;28;20587;-83
2022/06/17 07:39:54;;;;;;;8.77;3.43;;;19.10;99.90;;;;;;5068015;28;20216;-85
2022/06/17 07:42:37;;;;;;;5.67;3.60;;;19.10;99.90;;;;;;5068168;28;20178;-84
2022/06/17 07:45:09;;;;;;;7.03;3.20;;;19.20;99.90;;;;;;5067234;28;20618;-83
2022/06/17 07:47:36;;;;;;;4.80;3.17;;;19.20;99.90;;;;;;5069373;28;20274;-83
2022/06/17 07:50:05;;;;;;;3.13;2.83;;;19.20;99.90;;;;;;5067820;28;20203;-83
2022/06/17 07:52:31;;;;;;;5.17;3.30;;;;;;;;;;5068003;28;20194;-84
2022/06/17 07:54:57;;;;;;;7.40;2.70;;;19.30;99.90;;;;;;5070468;28;20207;-83
2022/06/17 07:57:23;;;;;;;7.30;2.73;;;;;;;;;;5071345;28;20586;-83
2022/06/17 07:59:48;;;;;;;7.63;2.80;;;19.50;99.90;;;;;;5069439;28;20207;-83
2022/06/17 08:02:14;;;;;;;7.67;3.00;;;;;;;;;;5069574;28;20237;-83
2022/06/17 08:04:41;;;;;;;3.90;2.90;;;19.60;99.90;;;;;;5068555;28;20203;-83
2022/06/17 08:07:08;;;;;;;5.27;2.60;;;;;;;;;;5068652;28;20176;-83
2022/06/17 08:09:33;;;;;;;3.47;2.50;;;19.60;99.90;;;;;;5071553;28;20284;-84
2022/06/17 08:12:00;;;;;;;3.33;2.73;;;;;;;;;;5067567;28;20180;-83
2022/06/17 08:14:26;;;;;;;3.30;2.67;;;19.90;99.90;;;;;;5065693;28;20217;-83
2022/06/17 08:16:52;;;;;;;4.17;2.93;;;;;;;;;;5064533;28;20192;-83
2022/06/17 08:19:19;;;;;;;4.63;2.90;;;20.10;99.90;;;;;;5065686;28;20251;-83
2022/06/17 08:21:44;;;;;;;3.20;2.60;;;20.40;99.90;;;;;;5073901;28;20183;-83
2022/06/17 08:24:10;;;;;;;4.70;2.77;;;;;;;;;;5077923;28;20260;-83
2022/06/17 08:26:36;;;;;;;3.10;2.80;;;20.30;99.90;;;;;;5070216;28;20225;-84
2022/06/17 08:29:02;;;;;;;2.73;2.30;;;;;;;;;;5067556;28;20227;-83
2022/06/17 08:31:28;;;;;;;3.60;2.60;;;;;;;;;;5067407;28;20176;-83
2022/06/17 08:33:54;;;;;;;2.67;2.40;;;20.90;99.90;;;;;;5067930;28;20630;-84
2022/06/17 08:36:24;;;;;;;4.73;2.90;;;20.80;99.90;;;;;;5068121;28;20185;-83
2022/06/17 08:38:53;;;;;;;2.90;2.50;;;21.00;99.90;;;;;;5067332;28;20201;-83
2022/06/17 08:41:45;;;;;;;4.00;2.50;;;20.90;99.90;;;;;;5071520;28;20190;-83
2022/06/17 08:44:17;;;;;;;14.63;2.87;;;21.20;99.90;;;;;;5070435;28;20183;-83
2022/06/17 08:46:43;;;;;;;3.40;2.70;;;;;;;;;;5067626;28;20208;-84
2022/06/17 08:49:09;;;;;;;7.03;2.67;;;21.50;99.90;;;;;;5065088;28;20217;-83
2022/06/17 08:51:34;;;;;;;7.23;3.17;;;;;;;;;;5065571;28;20177;-84
2022/06/17 08:54:24;;;;;;;12.63;3.10;;;22.00;99.90;;;;;;5065634;28;20236;-83
2022/06/17 08:56:50;;;;;;;4.03;2.23;;;;;;;;;;5066329;28;20174;-83
2022/06/17 08:59:38;;;;;;;3.07;2.37;;;22.00;99.90;;;;;;5064289;28;20205;-84
2022/06/17 09:02:04;;;;;;;2.20;2.00;;;;;;;;;;5065091;28;20233;-84
2022/06/17 09:05:00;;;;;;;4.07;2.37;;;22.50;99.90;;;;;;5064090;28;20201;-84
2022/06/17 09:07:40;;;;;;;3.23;2.67;;;22.40;99.90;;;;;;5064266;28;20182;-84
2022/06/17 09:10:30;;;;;;;2.60;2.40;;;22.50;99.90;;;;;;5065775;28;20793;-83
2022/06/17 09:13:22;;;;;;;3.57;2.27;;;22.40;99.90;;;;;;5064444;28;20178;-85
2022/06/17 09:16:06;;;;;;;2.57;2.10;;;23.00;99.90;;;;;;5066121;28;20607;-84
2022/06/17 09:18:38;;;;;;;3.40;2.23;;;23.20;99.90;;;;;;5067264;28;20189;-84
2022/06/17 09:21:23;;;;;;;4.17;2.40;;;22.90;99.90;;;;;;5067452;28;20182;-84
2022/06/17 09:23:51;;;;;;;3.47;2.80;;;23.30;99.90;;;;;;5066949;28;20175;-84
2022/06/17 09:26:24;;;;;;;3.00;2.53;;;23.60;99.90;;;;;;5065983;28;20212;-84
2022/06/17 09:28:58;;;;;;;8.10;2.33;;;23.80;99.90;;;;;;5066817;28;20624;-84
2022/06/17 09:31:38;;;;;;;4.67;2.30;;;23.90;99.90;;;;;;5067613;28;20203;-84
2022/06/17 09:34:28;;;;;;;3.70;2.27;;;24.10;99.90;;;;;;5064893;28;20187;-85
2022/06/17 09:37:18;;;;;;;6.10;2.50;;;24.30;99.90;;;;;;5064655;28;20181;-84
2022/06/17 09:40:07;;;;;;;3.43;2.10;;;24.40;99.90;;;;;;5066858;28;20248;-85
2022/06/17 09:42:39;;;;;;;3.27;2.40;;;24.50;99.90;;;;;;5063057;28;20257;-85
2022/06/17 09:45:29;;;;;;;2.83;2.33;;;24.80;99.90;;;;;;5067905;28;20216;-85
2022/06/17 09:48:08;;;;;;;3.07;2.27;;;24.60;99.90;;;;;;5067142;28;20170;-85
2022/06/17 09:50:54;;;;;;;4.57;2.40;;;24.80;99.90;;;;;;5066886;28;20555;-85
2022/06/17 09:53:34;;;;;;;3.33;2.17;;;24.90;99.90;;;;;;5067601;28;20205;-85
2022/06/17 09:56:10;;;;;;;3.37;2.10;;;25.00;99.90;;;;;;5073354;28;20174;-84
2022/06/17 09:59:00;;;;;;;2.50;2.30;;;25.00;99.90;;;;;;5067945;28;20170;-84
2022/06/17 10:01:26;;;;;;;4.50;2.20;;;25.30;99.90;;;;;;5062920;28;20179;-85
2022/06/17 10:03:52;;;;;;;2.30;1.87;;;25.60;99.90;;;;;;5063576;28;20180;-84
2022/06/17 10:06:27;;;;;;;3.40;2.40;;;25.80;99.90;;;;;;5062999;28;20567;-85
2022/06/17 10:09:01;;;;;;;4.77;2.00;;;25.90;99.90;;;;;;5062498;28;20206;-85
2022/06/17 10:11:55;;;;;;;4.60;2.30;;;25.90;99.90;;;;;;5063645;28;20249;-85
2022/06/17 10:14:24;;;;;;;7.77;1.87;;;26.00;99.90;;;;;;5061967;28;20718;-84
2022/06/17 10:20:29;;;;;;;3.83;2.20;;;26.40;98.20;;;;;;5062049;28;20576;-84
2022/06/17 10:23:13;;;;;;;1.87;1.63;;;26.60;99.40;;;;;;5057682;28;20229;-84
2022/06/17 10:25:56;;;;;;;2.93;2.03;;;26.60;97.90;;;;;;5058984;28;20578;-85
2022/06/17 10:28:46;;;;;;;3.20;1.97;;;26.80;95.50;;;;;;5055733;28;20183;-84
2022/06/17 10:31:28;;;;;;;3.23;1.53;;;26.70;96.20;;;;;;5068731;28;20162;-85
2022/06/17 10:33:56;;;;;;;2.17;1.57;;;26.90;98.40;;;;;;5078993;28;20260;-84
2022/06/17 10:36:22;;;;;;;1.90;1.70;;;26.80;93.90;;;;;;5067400;28;20191;-85
2022/06/17 10:38:48;;;;;;;1.97;1.50;;;26.60;93.90;;;;;;5063115;28;20225;-85
2022/06/17 10:41:16;;;;;;;6.30;2.57;;;26.40;92.30;;;;;;5062942;28;20173;-85
2022/06/17 10:43:51;;;;;;;3.40;1.70;;;26.50;96.80;;;;;;5063526;28;20182;-84
2022/06/17 10:46:25;;;;;;;3.47;1.90;;;26.60;95.80;;;;;;5064649;28;20204;-85
2022/06/17 10:49:06;;;;;;;3.27;1.90;;;26.60;96.90;;;;;;5061392;28;20871;-85
2022/06/17 10:51:35;;;;;;;3.60;1.50;;;26.90;95.60;;;;;;5063523;28;20181;-85
2022/06/17 10:54:12;;;;;;;1.93;1.60;;;27.20;94.90;;;;;;5063519;28;20170;-85
2022/06/17 10:56:48;;;;;;;3.80;1.67;;;27.40;94.90;;;;;;5063924;28;20174;-85
2022/06/17 10:59:14;;;;;;;4.17;1.93;;;27.70;94.40;;;;;;5062212;28;20211;-86
2022/06/17 11:01:58;;;;;;;3.33;1.70;;;27.90;89.20;;;;;;5062639;28;20186;-86
2022/06/17 11:04:35;;;;;;;1.93;1.70;;;28.00;94.10;;;;;;5063636;28;20696;-85
2022/06/17 11:07:06;;;;;;;3.77;1.70;;;28.10;85.00;;;;;;5063411;28;20195;-85
2022/06/17 11:09:39;;;;;;;2.37;1.83;;;28.10;91.20;;;;;;5066550;28;20227;-86
2022/06/17 11:12:30;;;;;;;1.70;1.53;;;28.20;88.30;;;;;;5069470;28;20198;-85
2022/06/17 11:15:03;;;;;;;2.37;1.40;;;28.40;87.90;;;;;;5061648;28;20199;-86
2022/06/17 11:17:58;;;;;;;4.17;1.40;;;28.40;84.00;;;;;;5062462;28;20191;-85
2022/06/17 11:20:37;;;;;;;2.20;1.60;;;28.50;86.80;;;;;;5061577;28;20215;-84
2022/06/17 11:23:07;;;;;;;2.73;1.63;;;28.60;89.10;;;;;;5062994;28;20230;-85
2022/06/17 11:25:35;;;;;;;1.80;1.70;;;28.60;90.00;;;;;;5063813;28;20214;-85
2022/06/17 11:28:24;;;;;;;1.80;1.70;;;28.80;84.20;;;;;;5062930;28;20197;-85
2022/06/17 11:31:03;;;;;;;1.77;1.40;;;28.80;90.10;;;;;;5062756;28;20176;-85
2022/06/17 11:33:35;;;;;;;2.83;1.80;;;29.00;84.50;;;;;;5064988;28;20162;-86
2022/06/17 11:36:17;;;;;;;3.60;1.87;;;29.10;81.60;;;;;;5063658;28;20208;-85
2022/06/17 11:38:44;;;;;;;4.63;2.10;;;29.10;89.00;;;;;;5063304;28;20201;-85
2022/06/17 11:41:10;;;;;;;2.10;1.90;;;29.30;86.20;;;;;;5062525;28;20263;-84
2022/06/17 11:43:43;;;;;;;2.03;1.83;;;29.30;86.40;;;;;;5062723;28;20176;-85
2022/06/17 11:46:16;;;;;;;2.57;2.20;;;29.40;77.20;;;;;;5062133;28;20755;-85
2022/06/17 11:48:59;;;;;;;1.80;1.63;;;29.20;79.60;;;;;;5063784;28;20187;-85
2022/06/17 11:51:32;;;;;;;2.37;1.60;;;29.00;82.90;;;;;;5061532;28;20187;-85
2022/06/17 11:54:05;;;;;;;2.43;1.80;;;29.10;85.80;;;;;;5060848;28;20580;-85
2022/06/17 11:56:39;;;;;;;5.37;1.97;;;29.30;76.70;;;;;;5062059;28;20177;-85
2022/06/17 11:59:27;;;;;;;1.83;1.50;;;29.30;81.90;;;;;;5060829;28;20686;-85
2022/06/17 12:01:55;;;;;;;1.93;1.43;;;29.10;83.90;;;;;;5063038;28;20193;-85
2022/06/17 12:04:40;;;;;;;3.00;2.10;;;29.00;83.20;;;;;;5061885;28;20184;-85
2022/06/17 12:07:45;;;;;;;4.93;2.30;;;29.00;87.10;;;;;;5062295;28;20178;-85
2022/06/17 12:10:35;;;;;;;4.43;2.30;;;29.20;85.50;;;;;;5063607;28;20748;-85
2022/06/17 12:13:11;;;;;;;3.50;1.80;;;29.30;87.50;;;;;;5063974;28;20182;-86
2022/06/17 12:15:44;;;;;;;3.83;2.30;;;29.60;80.30;;;;;;5062465;28;20214;-85
2022/06/17 12:18:24;;;;;;;4.87;1.93;;;29.60;73.30;;;;;;5062977;28;20238;-86
2022/06/17 12:21:00;;;;;;;2.93;1.80;;;29.60;81.40;;;;;;5061466;28;20624;-85
2022/06/17 12:23:36;;;;;;;3.03;1.90;;;29.80;78.20;;;;;;5064579;28;20177;-85
2022/06/17 12:26:05;;;;;;;1.70;1.60;;;29.90;75.70;;;;;;5065788;28;20177;-86
2022/06/17 12:28:40;;;;;;;2.20;1.77;;;29.90;76.40;;;;;;5065106;28;20187;-85
2022/06/17 12:31:27;;;;;;;1.80;1.70;;;29.90;75.20;;;;;;5062150;28;20178;-85
2022/06/17 12:34:04;;;;;;;2.07;1.80;;;29.80;78.50;;;;;;5061855;28;20179;-85
2022/06/17 12:36:35;;;;;;;3.93;2.23;;;29.90;79.40;;;;;;5060922;28;20201;-85
2022/06/17 12:39:41;;;;;;;3.20;1.90;;;30.10;80.30;;;;;;5063551;28;20195;-85
2022/06/17 12:42:08;;;;;;;2.30;1.80;;;30.10;81.80;;;;;;5079546;28;20206;-85
2022/06/17 12:44:39;;;;;;;3.63;1.83;;;30.20;79.10;;;;;;5075415;28;20640;-86
2022/06/17 12:47:14;;;;;;;3.23;1.70;;;30.40;88.00;;;;;;5067142;28;20184;-85
2022/06/17 12:53:15;;;;;;;2.87;1.83;;;30.30;80.60;;;;;;5064392;28;20185;-85
2022/06/17 12:56:02;;;;;;;2.20;2.00;;;30.30;75.40;;;;;;5063016;28;20612;-85
2022/06/17 12:58:46;;;;;;;4.90;1.97;;;29.80;77.50;;;;;;5062836;28;20279;-85
2022/06/17 13:01:51;;;;;;;2.00;1.80;;;29.80;76.60;;;;;;5063087;28;20186;-86
2022/06/17 13:05:04;;;;;;;3.37;1.80;;;29.80;76.20;;;;;;5063800;28;20195;-85
2022/06/17 13:08:08;;;;;;;2.53;2.00;;;29.80;76.90;;;;;;5053628;28;20247;-85
2022/06/17 13:10:52;;;;;;;2.30;2.10;;;29.60;75.70;;;;;;5064999;28;20258;-84
2022/06/17 13:13:23;;;;;;;2.10;1.67;;;29.70;75.30;;;;;;5064624;28;20184;-85
2022/06/17 13:16:00;;;;;;;1.70;1.50;;;29.80;69.00;;;;;;5062525;28;20607;-84
2022/06/17 13:18:31;;;;;;;3.23;1.50;;;29.90;76.10;;;;;;5063232;28;20176;-84
2022/06/17 13:21:06;;;;;;;4.27;1.90;;;29.90;74.90;;;;;;5065420;28;20194;-85
2022/06/17 13:23:44;;;;;;;2.73;1.57;;;30.10;77.40;;;;;;5065306;28;20201;-84
2022/06/17 13:26:19;;;;;;;2.60;1.77;;;30.40;78.30;;;;;;5062971;28;20188;-85
2022/06/17 13:28:56;;;;;;;2.00;1.60;;;30.30;73.90;;;;;;5063120;28;20207;-85
2022/06/17 13:31:48;;;;;;;3.07;1.70;;;30.40;79.60;;;;;;5063270;28;20564;-84
2022/06/17 13:34:57;;;;;;;2.83;1.60;;;30.30;70.60;;;;;;5064143;28;20236;-85
2022/06/17 13:37:29;;;;;;;2.27;1.60;;;30.30;69.00;;;;;;5063851;28;20193;-85
2022/06/17 13:40:05;;;;;;;2.33;1.63;;;30.10;72.10;;;;;;5064864;28;20208;-85
2022/06/17 13:42:32;;;;;;;4.50;1.80;;;29.90;70.00;;;;;;5066326;28;20166;-85